createdAt,value
2019-03-27T00:00:06.719Z,3.70
2019-03-27T00:01:06.630Z,3.30
2019-03-27T00:02:06.558Z,3.60
2019-03-27T00:03:06.468Z,3.70
2019-03-27T00:04:06.382Z,3.50
2019-03-27T00:05:06.294Z,3.30
2019-03-27T00:06:06.206Z,3.40
2019-03-27T00:07:06.119Z,3.80
2019-03-27T00:08:06.031Z,3.50
2019-03-27T00:09:05.955Z,3.80
2019-03-27T00:10:05.869Z,3.70
2019-03-27T00:11:05.781Z,3.50
2019-03-27T00:12:05.695Z,3.70
2019-03-27T00:13:05.620Z,3.10
2019-03-27T00:14:05.520Z,3.00
2019-03-27T00:15:12.837Z,3.50
2019-03-27T00:16:05.357Z,3.30
2019-03-27T00:17:05.270Z,3.10
2019-03-27T00:18:05.182Z,2.90
2019-03-27T00:19:05.101Z,3.20
2019-03-27T00:20:05.007Z,3.40
2019-03-27T00:21:04.922Z,3.30
2019-03-27T00:22:04.835Z,3.20
2019-03-27T00:23:04.770Z,3.20
2019-03-27T00:24:04.671Z,3.60
2019-03-27T00:25:04.585Z,3.30
2019-03-27T00:26:04.499Z,3.10
2019-03-27T00:27:04.408Z,3.20
2019-03-27T00:28:04.323Z,3.30
2019-03-27T00:29:04.246Z,3.50
2019-03-27T00:30:04.172Z,3.30
2019-03-27T00:31:04.072Z,3.30
2019-03-27T00:32:03.984Z,3.40
2019-03-27T00:33:03.900Z,3.10
2019-03-27T00:34:03.811Z,3.20
2019-03-27T00:35:03.734Z,2.90
2019-03-27T00:36:03.648Z,3.50
2019-03-27T00:37:03.575Z,3.30
2019-03-27T00:38:03.474Z,3.10
2019-03-27T00:39:03.385Z,3.50
2019-03-27T00:40:03.309Z,3.20
2019-03-27T00:41:03.223Z,3.00
2019-03-27T00:42:03.137Z,3.00
2019-03-27T00:43:03.051Z,3.30
2019-03-27T00:44:02.973Z,2.90
2019-03-27T00:45:02.874Z,3.10
2019-03-27T00:46:02.806Z,3.20
2019-03-27T00:47:02.711Z,3.60
2019-03-27T00:48:02.629Z,3.30
2019-03-27T00:49:02.535Z,3.20
2019-03-27T00:50:02.450Z,3.20
2019-03-27T00:51:02.416Z,3.60
2019-03-27T00:52:02.286Z,3.30
2019-03-27T00:53:02.202Z,3.50
2019-03-27T00:54:02.121Z,3.10
2019-03-27T00:55:02.025Z,3.20
2019-03-27T00:56:01.936Z,3.30
2019-03-27T00:57:01.862Z,3.60
2019-03-27T00:58:01.782Z,3.30
2019-03-27T00:59:01.686Z,2.90
2019-03-27T01:00:01.609Z,3.10
2019-03-27T01:01:01.511Z,3.40
2019-03-27T01:02:01.438Z,3.00
2019-03-27T01:03:01.349Z,2.90
2019-03-27T01:04:01.264Z,3.20
2019-03-27T01:05:01.175Z,3.50
2019-03-27T01:06:01.100Z,3.50
2019-03-27T01:07:01.001Z,3.60
2019-03-27T01:08:00.926Z,3.40
2019-03-27T01:09:00.837Z,3.30
2019-03-27T01:10:00.751Z,3.30
2019-03-27T01:11:00.662Z,3.30
2019-03-27T01:12:00.576Z,3.10
2019-03-27T01:13:00.501Z,3.40
2019-03-27T01:14:00.413Z,3.50
2019-03-27T01:15:00.338Z,3.50
2019-03-27T01:16:00.239Z,3.00
2019-03-27T01:17:00.152Z,3.30
2019-03-27T01:18:00.092Z,3.40
2019-03-27T01:18:59.989Z,3.40
2019-03-27T01:19:59.903Z,3.10
2019-03-27T01:20:59.813Z,3.50
2019-03-27T01:21:59.771Z,3.50
2019-03-27T01:22:59.652Z,3.10
2019-03-27T01:23:59.564Z,3.70
2019-03-27T01:24:59.483Z,3.70
2019-03-27T01:25:59.389Z,3.30
2019-03-27T01:26:59.303Z,3.30
2019-03-27T01:27:59.216Z,3.50
2019-03-27T01:28:59.139Z,3.90
2019-03-27T01:29:59.055Z,3.60
2019-03-27T01:30:58.964Z,3.70
2019-03-27T01:31:58.879Z,3.90
2019-03-27T01:32:58.794Z,3.80
2019-03-27T01:33:58.715Z,3.70
2019-03-27T01:34:58.629Z,3.80
2019-03-27T01:35:58.542Z,3.30
2019-03-27T01:36:58.454Z,3.60
2019-03-27T01:37:58.378Z,3.50
2019-03-27T01:38:58.291Z,3.90
2019-03-27T01:39:58.204Z,3.70
2019-03-27T01:40:58.115Z,3.70
2019-03-27T01:41:58.040Z,3.90
2019-03-27T01:42:57.955Z,3.80
2019-03-27T01:43:57.880Z,4.00
2019-03-27T01:44:57.782Z,4.20
2019-03-27T01:45:57.694Z,3.80
2019-03-27T01:46:57.605Z,3.60
2019-03-27T01:47:57.518Z,3.80
2019-03-27T01:48:57.441Z,4.00
2019-03-27T01:49:57.355Z,4.10
2019-03-27T01:50:57.280Z,3.70
2019-03-27T01:51:57.180Z,4.00
2019-03-27T01:52:57.094Z,3.90
2019-03-27T01:53:57.017Z,3.80
2019-03-27T01:54:56.931Z,3.80
2019-03-27T01:55:56.844Z,3.90
2019-03-27T01:56:56.756Z,4.00
2019-03-27T01:57:56.669Z,4.20
2019-03-27T01:58:56.592Z,4.10
2019-03-27T01:59:56.506Z,4.10
2019-03-27T02:00:56.418Z,3.90
2019-03-27T02:01:56.334Z,4.00
2019-03-27T02:02:56.245Z,4.40
2019-03-27T02:03:56.169Z,3.90
2019-03-27T02:04:56.083Z,3.90
2019-03-27T02:05:55.993Z,3.80
2019-03-27T02:06:55.907Z,3.80
2019-03-27T02:07:55.821Z,4.10
2019-03-27T02:08:55.744Z,4.10
2019-03-27T02:09:55.660Z,3.80
2019-03-27T02:10:55.568Z,4.00
2019-03-27T02:11:55.483Z,3.90
2019-03-27T02:12:55.394Z,4.00
2019-03-27T02:13:55.319Z,4.30
2019-03-27T02:14:55.233Z,4.40
2019-03-27T02:16:06.115Z,4.10
2019-03-27T02:16:55.059Z,4.10
2019-03-27T02:17:54.970Z,4.20
2019-03-27T02:18:54.895Z,4.50
2019-03-27T02:19:54.808Z,4.60
2019-03-27T02:20:54.720Z,4.40
2019-03-27T02:21:54.633Z,4.20
2019-03-27T02:22:54.558Z,4.40
2019-03-27T02:23:54.459Z,4.50
2019-03-27T02:24:54.384Z,5.10
2019-03-27T02:25:54.296Z,4.50
2019-03-27T02:26:54.220Z,4.90
2019-03-27T02:27:54.123Z,5.00
2019-03-27T02:28:54.035Z,4.60
2019-03-27T02:29:53.962Z,4.90
2019-03-27T02:30:53.871Z,5.00
2019-03-27T02:31:53.912Z,4.70
2019-03-27T02:32:53.704Z,5.10
2019-03-27T02:33:53.623Z,5.00
2019-03-27T02:34:53.536Z,5.30
2019-03-27T02:35:53.448Z,5.70
2019-03-27T02:36:53.371Z,5.10
2019-03-27T02:37:53.276Z,5.40
2019-03-27T02:38:53.191Z,5.20
2019-03-27T02:39:53.099Z,5.80
2019-03-27T02:40:53.025Z,6.30
2019-03-27T02:41:52.977Z,6.40
2019-03-27T02:42:52.858Z,6.30
2019-03-27T02:43:52.770Z,5.90
2019-03-27T02:44:52.673Z,6.30
2019-03-27T02:45:52.598Z,5.90
2019-03-27T02:46:52.517Z,6.30
2019-03-27T02:47:52.426Z,6.40
2019-03-27T02:48:52.339Z,6.20
2019-03-27T02:49:52.250Z,6.80
2019-03-27T02:50:52.175Z,6.90
2019-03-27T02:51:52.087Z,6.80
2019-03-27T02:52:52.005Z,7.30
2019-03-27T02:53:51.916Z,7.70
2019-03-27T02:54:51.838Z,7.40
2019-03-27T02:55:51.737Z,6.70
2019-03-27T02:56:51.664Z,7.60
2019-03-27T02:57:51.576Z,7.50
2019-03-27T02:58:51.488Z,7.00
2019-03-27T02:59:51.403Z,7.40
2019-03-27T03:00:51.329Z,8.00
2019-03-27T03:01:51.242Z,6.90
2019-03-27T03:02:51.152Z,7.70
2019-03-27T03:03:51.064Z,7.70
2019-03-27T03:04:50.990Z,7.80
2019-03-27T03:05:50.906Z,8.50
2019-03-27T03:06:50.817Z,8.20
2019-03-27T03:07:50.727Z,8.50
2019-03-27T03:08:50.644Z,9.00
2019-03-27T03:09:50.560Z,8.50
2019-03-27T03:10:50.468Z,8.50
2019-03-27T03:11:50.378Z,8.20
2019-03-27T03:12:50.301Z,8.60
2019-03-27T03:13:50.217Z,8.80
2019-03-27T03:14:50.135Z,8.20
2019-03-27T03:15:50.042Z,8.60
2019-03-27T03:16:49.956Z,8.20
2019-03-27T03:17:49.881Z,8.70
2019-03-27T03:18:49.798Z,8.60
2019-03-27T03:19:49.701Z,8.80
2019-03-27T03:20:49.615Z,9.10
2019-03-27T03:21:49.527Z,8.60
2019-03-27T03:22:49.453Z,9.10
2019-03-27T03:23:49.367Z,9.20
2019-03-27T03:24:49.277Z,9.10
2019-03-27T03:25:49.198Z,8.80
2019-03-27T03:26:51.148Z,8.70
2019-03-27T03:27:49.031Z,8.70
2019-03-27T03:28:48.942Z,8.70
2019-03-27T03:29:48.854Z,9.50
2019-03-27T03:30:48.821Z,8.80
2019-03-27T03:31:48.683Z,9.00
2019-03-27T03:32:48.643Z,8.80
2019-03-27T03:33:48.521Z,9.30
2019-03-27T03:34:48.429Z,9.50
2019-03-27T03:35:48.342Z,9.00
2019-03-27T03:36:48.254Z,9.20
2019-03-27T03:37:48.167Z,8.80
2019-03-27T03:38:48.092Z,8.60
2019-03-27T03:39:48.005Z,8.80
2019-03-27T03:40:47.924Z,8.50
2019-03-27T03:41:47.829Z,8.40
2019-03-27T03:42:47.743Z,8.40
2019-03-27T03:43:47.668Z,9.40
2019-03-27T03:44:47.585Z,8.60
2019-03-27T03:45:47.496Z,8.20
2019-03-27T03:46:59.754Z,8.80
2019-03-27T03:47:47.325Z,8.60
2019-03-27T03:48:47.245Z,8.80
2019-03-27T03:49:47.156Z,8.50
2019-03-27T03:50:47.068Z,8.70
2019-03-27T03:51:46.983Z,8.70
2019-03-27T03:52:46.899Z,8.30
2019-03-27T03:53:46.820Z,8.40
2019-03-27T03:54:46.730Z,8.40
2019-03-27T03:55:46.653Z,8.80
2019-03-27T03:56:46.560Z,8.70
2019-03-27T03:57:46.504Z,8.20
2019-03-27T03:58:46.398Z,8.40
2019-03-27T03:59:46.307Z,8.30
2019-03-27T04:00:46.221Z,8.10
2019-03-27T04:01:46.144Z,8.00
2019-03-27T04:02:46.059Z,8.40
2019-03-27T04:03:45.973Z,7.70
2019-03-27T04:04:45.898Z,8.40
2019-03-27T04:05:45.799Z,7.90
2019-03-27T04:06:45.708Z,8.30
2019-03-27T04:07:45.633Z,8.40
2019-03-27T04:08:45.547Z,7.90
2019-03-27T04:09:45.457Z,7.80
2019-03-27T04:10:45.435Z,8.50
2019-03-27T04:11:45.297Z,7.90
2019-03-27T04:12:45.208Z,8.20
2019-03-27T04:13:45.122Z,7.60
2019-03-27T04:14:45.039Z,8.10
2019-03-27T04:15:44.949Z,7.80
2019-03-27T04:16:44.914Z,8.00
2019-03-27T04:17:44.818Z,8.20
2019-03-27T04:18:44.698Z,8.20
2019-03-27T04:19:44.611Z,7.90
2019-03-27T04:20:44.522Z,8.10
2019-03-27T04:21:44.458Z,7.70
2019-03-27T04:22:44.359Z,7.40
2019-03-27T04:23:44.273Z,8.70
2019-03-27T04:24:44.184Z,8.00
2019-03-27T04:26:08.059Z,7.70
2019-03-27T04:26:44.023Z,7.90
2019-03-27T04:27:43.949Z,8.10
2019-03-27T04:28:43.847Z,7.90
2019-03-27T04:29:43.761Z,8.20
2019-03-27T04:30:43.685Z,8.50
2019-03-27T04:31:43.599Z,7.70
2019-03-27T04:32:43.510Z,7.80
2019-03-27T04:33:43.423Z,7.90
2019-03-27T04:34:46.818Z,7.80
2019-03-27T04:35:43.265Z,7.70
2019-03-27T04:36:43.174Z,7.50
2019-03-27T04:37:43.086Z,8.10
2019-03-27T04:38:43.012Z,7.80
2019-03-27T04:39:42.924Z,7.80
2019-03-27T04:40:42.837Z,7.90
2019-03-27T04:41:42.749Z,7.60
2019-03-27T04:42:42.662Z,7.90
2019-03-27T04:43:42.586Z,8.00
2019-03-27T04:44:42.500Z,7.70
2019-03-27T04:45:42.412Z,7.20
2019-03-27T04:46:42.339Z,7.70
2019-03-27T04:47:42.238Z,7.70
2019-03-27T04:48:42.166Z,7.60
2019-03-27T04:49:42.074Z,8.20
2019-03-27T04:50:41.988Z,7.70
2019-03-27T04:51:41.901Z,7.90
2019-03-27T04:52:41.824Z,7.10
2019-03-27T04:53:41.737Z,7.30
2019-03-27T04:54:41.651Z,7.50
2019-03-27T04:55:41.574Z,7.90
2019-03-27T04:56:41.476Z,7.60
2019-03-27T04:57:41.400Z,7.40
2019-03-27T04:58:41.312Z,7.40
2019-03-27T04:59:41.227Z,7.80
2019-03-27T05:00:41.153Z,7.40
2019-03-27T05:01:41.064Z,8.10
2019-03-27T05:02:40.975Z,8.10
2019-03-27T05:03:40.894Z,8.40
2019-03-27T05:04:40.801Z,7.70
2019-03-27T05:05:40.726Z,7.60
2019-03-27T05:06:40.642Z,7.10
2019-03-27T05:07:40.555Z,7.60
2019-03-27T05:08:40.465Z,7.20
2019-03-27T05:09:40.378Z,7.70
2019-03-27T05:10:40.303Z,7.60
2019-03-27T05:11:40.214Z,7.70
2019-03-27T05:12:40.126Z,7.30
2019-03-27T05:13:40.039Z,7.40
2019-03-27T05:14:39.964Z,7.40
2019-03-27T05:15:39.876Z,7.30
2019-03-27T05:16:39.790Z,7.70
2019-03-27T05:17:45.605Z,7.80
2019-03-27T05:18:39.627Z,7.50
2019-03-27T05:19:39.544Z,7.50
2019-03-27T05:20:39.453Z,8.00
2019-03-27T05:21:39.366Z,7.80
2019-03-27T05:22:39.289Z,8.10
2019-03-27T05:23:39.206Z,7.80
2019-03-27T05:24:39.115Z,7.90
2019-03-27T05:25:39.028Z,7.70
2019-03-27T05:26:38.941Z,8.20
2019-03-27T05:27:38.867Z,7.60
2019-03-27T05:28:38.778Z,7.10
2019-03-27T05:29:38.690Z,7.40
2019-03-27T05:30:38.609Z,7.50
2019-03-27T05:31:38.517Z,7.00
2019-03-27T05:32:38.441Z,7.30
2019-03-27T05:33:38.355Z,7.30
2019-03-27T05:34:38.266Z,7.50
2019-03-27T05:35:38.179Z,7.90
2019-03-27T05:36:38.105Z,7.70
2019-03-27T05:37:38.016Z,7.70
2019-03-27T05:38:37.929Z,7.80
2019-03-27T05:39:37.843Z,7.50
2019-03-27T05:40:37.767Z,7.30
2019-03-27T05:41:37.680Z,7.30
2019-03-27T05:42:37.605Z,7.00
2019-03-27T05:43:37.505Z,7.60
2019-03-27T05:44:37.436Z,7.70
2019-03-27T05:45:37.342Z,7.40
2019-03-27T05:46:37.256Z,7.80
2019-03-27T05:47:37.167Z,7.80
2019-03-27T05:48:37.093Z,7.00
2019-03-27T05:49:37.007Z,8.00
2019-03-27T05:50:36.917Z,7.60
2019-03-27T05:51:36.832Z,7.60
2019-03-27T05:52:36.757Z,8.20
2019-03-27T05:53:36.668Z,8.00
2019-03-27T05:54:36.582Z,8.20
2019-03-27T05:55:36.494Z,8.10
2019-03-27T05:56:36.431Z,8.50
2019-03-27T05:57:36.332Z,8.10
2019-03-27T05:58:36.243Z,8.50
2019-03-27T05:59:36.157Z,8.00
2019-03-27T06:00:36.087Z,8.70
2019-03-27T06:01:35.996Z,8.80
2019-03-27T06:02:35.908Z,8.70
2019-03-27T06:03:35.820Z,8.40
2019-03-27T06:04:35.733Z,9.00
2019-03-27T06:05:35.660Z,8.40
2019-03-27T06:06:35.647Z,9.00
2019-03-27T06:07:35.483Z,9.10
2019-03-27T06:08:35.396Z,9.60
2019-03-27T06:09:35.319Z,8.40
2019-03-27T06:10:35.235Z,9.50
2019-03-27T06:11:35.144Z,8.70
2019-03-27T06:12:35.069Z,9.80
2019-03-27T06:13:34.986Z,10.20
2019-03-27T06:14:34.895Z,9.90
2019-03-27T06:15:34.810Z,9.80
2019-03-27T06:16:34.723Z,10.00
2019-03-27T06:17:34.645Z,9.80
2019-03-27T06:18:34.558Z,9.90
2019-03-27T06:19:34.471Z,10.60
2019-03-27T06:20:34.387Z,9.90
2019-03-27T06:21:34.313Z,10.10
2019-03-27T06:22:34.221Z,10.40
2019-03-27T06:23:34.135Z,11.10
2019-03-27T06:24:34.047Z,10.50
2019-03-27T06:25:33.980Z,11.00
2019-03-27T06:26:33.886Z,10.70
2019-03-27T06:27:33.809Z,11.40
2019-03-27T06:28:33.713Z,10.80
2019-03-27T06:29:33.623Z,11.60
2019-03-27T06:30:33.548Z,11.80
2019-03-27T06:31:33.460Z,11.60
2019-03-27T06:32:33.372Z,11.40
2019-03-27T06:33:33.285Z,11.50
2019-03-27T06:34:33.210Z,11.50
2019-03-27T06:35:33.122Z,11.90
2019-03-27T06:36:33.039Z,12.40
2019-03-27T06:37:32.950Z,11.20
2019-03-27T06:38:32.873Z,11.60
2019-03-27T06:39:32.786Z,12.30
2019-03-27T06:40:32.698Z,10.90
2019-03-27T06:41:32.611Z,11.60
2019-03-27T06:42:32.536Z,11.50
2019-03-27T06:43:32.449Z,11.80
2019-03-27T06:44:32.362Z,10.90
2019-03-27T06:45:32.274Z,11.00
2019-03-27T06:46:32.200Z,10.80
2019-03-27T06:47:32.111Z,11.40
2019-03-27T06:48:32.024Z,11.00
2019-03-27T06:49:31.940Z,11.80
2019-03-27T06:50:31.862Z,10.20
2019-03-27T06:51:39.948Z,11.00
2019-03-27T06:52:31.688Z,10.30
2019-03-27T06:53:31.599Z,10.10
2019-03-27T06:54:31.525Z,10.20
2019-03-27T06:55:31.443Z,9.50
2019-03-27T06:56:31.352Z,9.80
2019-03-27T06:57:31.268Z,10.60
2019-03-27T06:58:31.188Z,10.30
2019-03-27T06:59:31.099Z,9.50
2019-03-27T07:00:31.014Z,9.00
2019-03-27T07:01:30.943Z,9.60
2019-03-27T07:02:30.856Z,9.30
2019-03-27T07:03:30.766Z,8.90
2019-03-27T07:04:30.677Z,8.80
2019-03-27T07:05:30.600Z,8.40
2019-03-27T07:06:30.514Z,8.90
2019-03-27T07:07:30.426Z,7.80
2019-03-27T07:08:30.351Z,8.30
2019-03-27T07:09:30.264Z,7.70
2019-03-27T07:10:30.177Z,8.20
2019-03-27T07:11:30.090Z,8.30
2019-03-27T07:12:30.020Z,8.20
2019-03-27T07:13:29.927Z,8.50
2019-03-27T07:14:29.844Z,7.40
2019-03-27T07:15:29.771Z,7.80
2019-03-27T07:16:29.677Z,7.90
2019-03-27T07:17:29.589Z,7.40
2019-03-27T07:18:39.548Z,7.50
2019-03-27T07:19:29.441Z,7.30
2019-03-27T07:20:29.340Z,7.60
2019-03-27T07:21:29.272Z,7.40
2019-03-27T07:22:29.179Z,7.90
2019-03-27T07:23:29.093Z,7.40
2019-03-27T07:24:29.017Z,7.00
2019-03-27T07:25:28.942Z,6.60
2019-03-27T07:26:28.841Z,6.80
2019-03-27T07:27:28.774Z,7.10
2019-03-27T07:28:28.678Z,7.20
2019-03-27T07:29:28.591Z,7.50
2019-03-27T07:30:28.516Z,7.40
2019-03-27T07:31:28.443Z,6.80
2019-03-27T07:32:28.342Z,6.50
2019-03-27T07:33:28.274Z,6.60
2019-03-27T07:34:28.179Z,6.10
2019-03-27T07:35:28.092Z,6.50
2019-03-27T07:36:28.021Z,6.20
2019-03-27T07:37:27.932Z,6.20
2019-03-27T07:38:27.843Z,6.70
2019-03-27T07:39:27.769Z,6.00
2019-03-27T07:40:27.680Z,6.00
2019-03-27T07:41:27.592Z,6.00
2019-03-27T07:42:28.841Z,5.80
2019-03-27T07:43:27.434Z,5.90
2019-03-27T07:44:27.344Z,5.80
2019-03-27T07:45:27.271Z,5.60
2019-03-27T07:46:27.180Z,6.00
2019-03-27T07:47:27.106Z,6.10
2019-03-27T07:48:27.019Z,5.90
2019-03-27T07:49:26.930Z,5.40
2019-03-27T07:50:26.868Z,5.60
2019-03-27T07:51:26.769Z,5.30
2019-03-27T07:52:26.681Z,5.40
2019-03-27T07:53:26.606Z,5.50
2019-03-27T07:54:26.525Z,5.50
2019-03-27T07:55:26.432Z,5.50
2019-03-27T07:56:26.358Z,5.80
2019-03-27T07:57:26.269Z,5.30
2019-03-27T07:58:26.194Z,5.40
2019-03-27T07:59:26.107Z,5.40
2019-03-27T08:00:26.026Z,5.30
2019-03-27T08:01:25.945Z,5.40
2019-03-27T08:02:25.858Z,5.10
2019-03-27T08:03:25.771Z,5.40
2019-03-27T08:04:25.697Z,5.50
2019-03-27T08:05:25.621Z,6.00
2019-03-27T08:06:25.532Z,5.80
2019-03-27T08:07:27.000Z,6.00
2019-03-27T08:08:25.357Z,6.10
2019-03-27T08:09:25.282Z,5.60
2019-03-27T08:10:25.196Z,5.30
2019-03-27T08:11:25.179Z,5.60
2019-03-27T08:12:25.033Z,5.30
2019-03-27T08:13:24.946Z,5.50
2019-03-27T08:14:24.859Z,5.70
2019-03-27T08:15:24.783Z,5.50
2019-03-27T08:16:24.696Z,5.60
2019-03-27T08:17:24.631Z,5.70
2019-03-27T08:18:24.547Z,5.20
2019-03-27T08:19:24.446Z,5.50
2019-03-27T08:20:24.374Z,5.30
2019-03-27T08:21:24.284Z,6.00
2019-03-27T08:22:24.209Z,5.70
2019-03-27T08:23:24.122Z,5.30
2019-03-27T08:24:24.047Z,5.40
2019-03-27T08:25:23.948Z,5.40
2019-03-27T08:26:23.872Z,5.20
2019-03-27T08:27:23.788Z,5.70
2019-03-27T08:28:23.709Z,5.20
2019-03-27T08:29:23.640Z,5.80
2019-03-27T08:30:23.563Z,5.80
2019-03-27T08:31:23.460Z,5.30
2019-03-27T08:32:23.376Z,5.30
2019-03-27T08:33:23.330Z,5.40
2019-03-27T08:34:23.213Z,5.30
2019-03-27T08:35:23.123Z,6.00
2019-03-27T08:36:23.048Z,5.20
2019-03-27T08:37:22.960Z,5.60
2019-03-27T08:38:22.873Z,5.40
2019-03-27T08:39:22.787Z,5.60
2019-03-27T08:40:22.710Z,5.70
2019-03-27T08:41:22.639Z,5.20
2019-03-27T08:42:22.549Z,5.50
2019-03-27T08:43:25.491Z,6.00
2019-03-27T08:44:22.375Z,5.60
2019-03-27T08:45:22.299Z,5.20
2019-03-27T08:46:22.211Z,5.90
2019-03-27T08:47:22.125Z,5.40
2019-03-27T08:48:22.049Z,5.40
2019-03-27T08:49:22.676Z,5.40
2019-03-27T08:50:21.875Z,5.30
2019-03-27T08:51:21.799Z,5.30
2019-03-27T08:52:21.712Z,5.10
2019-03-27T08:53:21.626Z,5.10
2019-03-27T08:54:21.551Z,4.80
2019-03-27T08:55:21.462Z,5.20
2019-03-27T08:56:21.387Z,5.50
2019-03-27T08:57:21.300Z,5.40
2019-03-27T08:58:21.212Z,5.30
2019-03-27T08:59:21.138Z,5.10
2019-03-27T09:00:21.428Z,4.80
2019-03-27T09:01:20.964Z,4.70
2019-03-27T09:02:20.901Z,4.80
2019-03-27T09:03:20.808Z,5.20
2019-03-27T09:04:20.716Z,5.30
2019-03-27T09:05:20.638Z,5.40
2019-03-27T09:06:33.153Z,5.20
2019-03-27T09:07:20.476Z,5.10
2019-03-27T09:08:20.402Z,5.10
2019-03-27T09:09:20.302Z,4.80
2019-03-27T09:10:20.232Z,5.20
2019-03-27T09:11:20.139Z,4.70
2019-03-27T09:12:20.065Z,5.30
2019-03-27T09:13:19.977Z,5.20
2019-03-27T09:14:19.890Z,5.30
2019-03-27T09:15:19.814Z,5.30
2019-03-27T09:16:19.728Z,5.40
2019-03-27T09:17:19.641Z,5.40
2019-03-27T09:18:19.565Z,5.90
2019-03-27T09:19:19.479Z,5.00
2019-03-27T09:20:19.406Z,5.20
2019-03-27T09:21:19.315Z,5.40
2019-03-27T09:22:19.240Z,5.20
2019-03-27T09:23:19.153Z,5.30
2019-03-27T09:24:19.079Z,4.90
2019-03-27T09:25:18.991Z,5.30
2019-03-27T09:26:18.903Z,5.00
2019-03-27T09:27:18.817Z,5.00
2019-03-27T09:28:18.742Z,4.50
2019-03-27T09:29:18.653Z,4.80
2019-03-27T09:30:18.580Z,4.80
2019-03-27T09:31:18.492Z,5.00
2019-03-27T09:32:18.416Z,5.10
2019-03-27T09:33:18.331Z,4.70
2019-03-27T09:34:18.260Z,4.30
2019-03-27T09:35:18.166Z,4.10
2019-03-27T09:36:18.081Z,4.70
2019-03-27T09:37:18.006Z,4.80
2019-03-27T09:38:17.932Z,4.80
2019-03-27T09:39:17.843Z,4.60
2019-03-27T09:40:17.759Z,4.30
2019-03-27T09:41:17.681Z,4.80
2019-03-27T09:42:17.593Z,5.20
2019-03-27T09:43:17.532Z,4.70
2019-03-27T09:44:17.431Z,5.10
2019-03-27T09:45:17.343Z,4.80
2019-03-27T09:46:17.281Z,5.10
2019-03-27T09:47:17.181Z,5.10
2019-03-27T09:48:17.107Z,5.10
2019-03-27T09:49:17.033Z,5.10
2019-03-27T09:50:16.943Z,4.90
2019-03-27T09:51:16.860Z,5.10
2019-03-27T09:52:16.776Z,5.10
2019-03-27T09:53:16.694Z,4.30
2019-03-27T09:54:16.608Z,4.50
2019-03-27T09:55:16.532Z,5.00
2019-03-27T09:56:19.463Z,4.60
2019-03-27T09:57:16.368Z,4.10
2019-03-27T09:58:16.282Z,4.50
2019-03-27T09:59:16.204Z,4.10
2019-03-27T10:00:16.133Z,4.30
2019-03-27T10:01:16.032Z,4.40
2019-03-27T10:02:15.958Z,4.20
2019-03-27T10:03:15.870Z,3.80
2019-03-27T10:04:15.795Z,4.00
2019-03-27T10:05:15.709Z,4.10
2019-03-27T10:06:15.634Z,4.30
2019-03-27T10:07:28.308Z,3.90
2019-03-27T10:08:15.472Z,3.70
2019-03-27T10:09:15.398Z,4.40
2019-03-27T10:10:15.310Z,4.50
2019-03-27T10:11:15.234Z,4.80
2019-03-27T10:12:15.148Z,4.60
2019-03-27T10:13:15.073Z,4.40
2019-03-27T10:14:14.988Z,4.30
2019-03-27T10:15:14.899Z,4.60
2019-03-27T10:16:14.823Z,4.40
2019-03-27T10:17:14.735Z,4.40
2019-03-27T10:18:14.661Z,4.40
2019-03-27T10:19:14.573Z,4.40
2019-03-27T10:20:14.499Z,4.70
2019-03-27T10:21:14.412Z,4.70
2019-03-27T10:22:14.336Z,4.70
2019-03-27T10:23:14.250Z,4.40
2019-03-27T10:24:14.160Z,4.00
2019-03-27T10:25:14.091Z,4.00
2019-03-27T10:26:13.999Z,3.90
2019-03-27T10:27:13.926Z,4.20
2019-03-27T10:28:13.837Z,3.90
2019-03-27T10:29:13.761Z,4.20
2019-03-27T10:30:13.675Z,3.80
2019-03-27T10:31:13.588Z,4.80
2019-03-27T10:32:13.512Z,4.60
2019-03-27T10:33:15.227Z,4.10
2019-03-27T10:34:13.351Z,4.20
2019-03-27T10:35:13.263Z,4.70
2019-03-27T10:36:13.187Z,4.70
2019-03-27T10:37:13.100Z,4.70
2019-03-27T10:38:13.027Z,4.40
2019-03-27T10:39:12.937Z,5.00
2019-03-27T10:40:12.855Z,4.90
2019-03-27T10:41:12.776Z,4.50
2019-03-27T10:42:12.696Z,4.70
2019-03-27T10:43:12.615Z,4.50
2019-03-27T10:44:12.528Z,4.50
2019-03-27T10:45:12.453Z,4.70
2019-03-27T10:46:12.364Z,4.60
2019-03-27T10:47:12.290Z,4.30
2019-03-27T10:48:12.203Z,4.50
2019-03-27T10:49:12.128Z,4.00
2019-03-27T10:50:17.711Z,4.30
2019-03-27T10:51:11.953Z,4.40
2019-03-27T10:52:11.877Z,4.40
2019-03-27T10:53:11.792Z,4.00
2019-03-27T10:54:11.714Z,4.60
2019-03-27T10:55:11.631Z,4.40
2019-03-27T10:56:11.556Z,4.70
2019-03-27T10:57:11.465Z,4.70
2019-03-27T10:58:11.412Z,4.50
2019-03-27T10:59:11.314Z,4.30
2019-03-27T11:00:11.216Z,4.50
2019-03-27T11:01:11.141Z,4.50
2019-03-27T11:02:11.053Z,4.90
2019-03-27T11:03:10.979Z,5.30
2019-03-27T11:04:10.894Z,4.10
2019-03-27T11:05:10.816Z,4.50
2019-03-27T11:06:10.737Z,4.40
2019-03-27T11:07:10.657Z,4.20
2019-03-27T11:08:11.573Z,4.10
2019-03-27T11:09:10.484Z,4.20
2019-03-27T11:10:10.404Z,4.60
2019-03-27T11:11:10.316Z,4.00
2019-03-27T11:12:10.241Z,5.00
2019-03-27T11:13:10.158Z,4.90
2019-03-27T11:14:10.082Z,4.60
2019-03-27T11:15:10.005Z,4.60
2019-03-27T11:16:09.916Z,5.20
2019-03-27T11:17:09.831Z,5.20
2019-03-27T11:18:09.743Z,5.80
2019-03-27T11:19:09.667Z,6.00
2019-03-27T11:20:09.581Z,5.40
2019-03-27T11:21:09.505Z,6.30
2019-03-27T11:22:09.423Z,5.70
2019-03-27T11:23:09.343Z,5.50
2019-03-27T11:24:09.257Z,5.40
2019-03-27T11:25:09.168Z,5.70
2019-03-27T11:26:09.094Z,5.80
2019-03-27T11:27:09.007Z,6.00
2019-03-27T11:28:08.932Z,6.00
2019-03-27T11:29:08.844Z,6.00
2019-03-27T11:30:08.769Z,5.80
2019-03-27T11:31:08.681Z,7.20
2019-03-27T11:32:08.595Z,5.70
2019-03-27T11:33:08.552Z,6.40
2019-03-27T11:34:08.432Z,6.00
2019-03-27T11:35:08.357Z,5.90
2019-03-27T11:36:08.272Z,6.30
2019-03-27T11:37:08.189Z,6.10
2019-03-27T11:38:08.107Z,6.30
2019-03-27T11:39:08.019Z,5.80
2019-03-27T11:40:07.944Z,6.50
2019-03-27T11:41:07.857Z,5.60
2019-03-27T11:42:07.782Z,6.00
2019-03-27T11:43:07.695Z,5.80
2019-03-27T11:44:07.608Z,6.00
2019-03-27T11:45:07.554Z,6.00
2019-03-27T11:46:07.445Z,5.80
2019-03-27T11:47:07.384Z,6.00
2019-03-27T11:48:08.295Z,5.70
2019-03-27T11:49:07.197Z,6.00
2019-03-27T11:50:07.122Z,5.70
2019-03-27T11:51:07.036Z,5.20
2019-03-27T11:52:06.958Z,5.60
2019-03-27T11:53:06.884Z,5.60
2019-03-27T11:54:06.798Z,5.50
2019-03-27T11:55:06.712Z,5.50
2019-03-27T11:56:06.623Z,5.10
2019-03-27T11:57:06.546Z,6.40
2019-03-27T11:58:06.461Z,6.90
2019-03-27T11:59:06.387Z,5.60
2019-03-27T12:00:06.298Z,5.00
2019-03-27T12:01:06.221Z,5.10
2019-03-27T12:02:06.135Z,5.10
2019-03-27T12:03:06.061Z,5.40
2019-03-27T12:04:05.985Z,4.90
2019-03-27T12:05:05.897Z,5.40
2019-03-27T12:06:05.816Z,5.10
2019-03-27T12:07:05.736Z,5.20
2019-03-27T12:08:05.650Z,5.20
2019-03-27T12:09:05.585Z,5.60
2019-03-27T12:10:05.486Z,5.00
2019-03-27T12:11:05.399Z,5.20
2019-03-27T12:12:05.327Z,5.20
2019-03-27T12:13:05.236Z,6.30
2019-03-27T12:14:05.164Z,5.60
2019-03-27T12:15:05.073Z,5.40
2019-03-27T12:16:04.998Z,5.00
2019-03-27T12:17:04.912Z,4.70
2019-03-27T12:18:04.836Z,4.90
2019-03-27T12:19:04.748Z,4.80
2019-03-27T12:20:04.673Z,5.10
2019-03-27T12:21:04.587Z,4.50
2019-03-27T12:22:04.522Z,4.90
2019-03-27T12:23:04.429Z,4.50
2019-03-27T12:24:04.350Z,4.50
2019-03-27T12:25:04.265Z,4.50
2019-03-27T12:26:04.187Z,4.50
2019-03-27T12:27:04.102Z,4.50
2019-03-27T12:28:04.025Z,4.70
2019-03-27T12:29:03.938Z,4.60
2019-03-27T12:30:03.864Z,4.60
2019-03-27T12:31:03.775Z,4.50
2019-03-27T12:32:03.700Z,4.20
2019-03-27T12:33:03.613Z,4.70
2019-03-27T12:34:03.547Z,4.40
2019-03-27T12:35:03.451Z,4.60
2019-03-27T12:36:03.375Z,4.40
2019-03-27T12:37:03.288Z,4.40
2019-03-27T12:38:04.362Z,4.40
2019-03-27T12:39:03.127Z,4.50
2019-03-27T12:40:11.025Z,4.30
2019-03-27T12:41:02.965Z,4.70
2019-03-27T12:42:02.889Z,4.40
2019-03-27T12:43:02.814Z,4.50
2019-03-27T12:44:02.805Z,4.40
2019-03-27T12:45:02.640Z,4.60
2019-03-27T12:46:02.566Z,4.50
2019-03-27T12:47:02.538Z,4.00
2019-03-27T12:48:02.414Z,4.10
2019-03-27T12:49:02.314Z,4.30
2019-03-27T12:50:02.241Z,4.00
2019-03-27T12:51:12.187Z,4.60
2019-03-27T12:52:05.200Z,4.20
2019-03-27T12:53:01.990Z,4.50
2019-03-27T12:54:01.915Z,4.20
2019-03-27T12:55:01.832Z,4.20
2019-03-27T12:56:01.766Z,3.90
2019-03-27T12:57:01.666Z,4.40
2019-03-27T12:58:01.600Z,4.30
2019-03-27T12:59:01.508Z,4.10
2019-03-27T13:00:01.432Z,3.90
2019-03-27T13:01:01.342Z,4.20
2019-03-27T13:02:01.267Z,4.40
2019-03-27T13:03:01.178Z,4.50
2019-03-27T13:04:01.105Z,3.50
2019-03-27T13:05:01.017Z,4.10
2019-03-27T13:06:00.942Z,4.00
2019-03-27T13:07:00.855Z,4.10
2019-03-27T13:08:00.779Z,3.70
2019-03-27T13:09:00.694Z,3.80
2019-03-27T13:10:00.621Z,4.40
2019-03-27T13:11:00.530Z,3.80
2019-03-27T13:12:00.459Z,3.70
2019-03-27T13:13:00.375Z,4.00
2019-03-27T13:14:00.282Z,4.00
2019-03-27T13:15:00.359Z,4.00
2019-03-27T13:16:00.104Z,3.50